Terminal Aerodrome Forecast
Issued by NWS

Home | Current Version | Previous Version | Text Only | Print | Product List | Glossary On
Versions: 1 2 3 4 5 6 7 8 9 10 11 12 13 14 15
000
FTUS46 KMTR 060520
TAFSNS
TAF
KSNS 060520Z 0606/0706 29007KT P6SM OVC010
     FM061730 27014KT P6SM FEW012 SCT250
     FM070200 27009KT P6SM BKN009=

USA.gov is the U.S. government's official web portal to all federal, state and local government web resources and services.